sensor_id;sensor_type;location;lat;lon;timestamp;P1;durP1;ratioP1;P2;durP2;ratioP2
12635;SDS011;6383;50.830;7.210;2023-03-19T00:00:26;8.18;;;5.53;;
12635;SDS011;6383;50.830;7.210;2023-03-19T00:02:53;7.35;;;5.35;;
12635;SDS011;6383;50.830;7.210;2023-03-19T00:05:23;15.70;;;6.35;;
12635;SDS011;6383;50.830;7.210;2023-03-19T00:07:52;12.00;;;5.75;;
12635;SDS011;6383;50.830;7.210;2023-03-19T00:10:21;11.77;;;5.68;;
12635;SDS011;6383;50.830;7.210;2023-03-19T00:12:48;9.82;;;5.10;;
12635;SDS011;6383;50.830;7.210;2023-03-19T00:15:18;12.70;;;5.50;;
12635;SDS011;6383;50.830;7.210;2023-03-19T00:17:46;11.95;;;4.95;;
12635;SDS011;6383;50.830;7.210;2023-03-19T00:20:13;8.52;;;5.13;;
12635;SDS011;6383;50.830;7.210;2023-03-19T00:22:46;14.07;;;5.95;;
12635;SDS011;6383;50.830;7.210;2023-03-19T00:25:14;9.35;;;5.10;;
12635;SDS011;6383;50.830;7.210;2023-03-19T00:27:43;14.18;;;5.50;;
12635;SDS011;6383;50.830;7.210;2023-03-19T00:30:11;9.93;;;5.75;;
12635;SDS011;6383;50.830;7.210;2023-03-19T00:32:41;11.30;;;6.63;;
12635;SDS011;6383;50.830;7.210;2023-03-19T00:35:09;9.93;;;6.53;;
12635;SDS011;6383;50.830;7.210;2023-03-19T00:37:38;19.95;;;10.18;;
12635;SDS011;6383;50.830;7.210;2023-03-19T00:40:11;25.08;;;12.43;;
12635;SDS011;6383;50.830;7.210;2023-03-19T00:42:38;29.33;;;14.52;;
12635;SDS011;6383;50.830;7.210;2023-03-19T00:45:08;31.17;;;15.18;;
12635;SDS011;6383;50.830;7.210;2023-03-19T00:47:37;36.58;;;15.02;;
12635;SDS011;6383;50.830;7.210;2023-03-19T00:50:07;34.15;;;15.10;;
12635;SDS011;6383;50.830;7.210;2023-03-19T00:52:36;23.80;;;11.52;;
12635;SDS011;6383;50.830;7.210;2023-03-19T00:55:04;13.25;;;7.18;;
12635;SDS011;6383;50.830;7.210;2023-03-19T00:57:35;12.23;;;6.93;;
12635;SDS011;6383;50.830;7.210;2023-03-19T01:00:05;12.55;;;7.63;;
12635;SDS011;6383;50.830;7.210;2023-03-19T01:02:35;10.23;;;6.43;;
12635;SDS011;6383;50.830;7.210;2023-03-19T01:05:03;17.75;;;7.07;;
12635;SDS011;6383;50.830;7.210;2023-03-19T01:07:32;8.60;;;5.90;;
12635;SDS011;6383;50.830;7.210;2023-03-19T01:09:59;11.25;;;6.22;;
12635;SDS011;6383;50.830;7.210;2023-03-19T01:12:28;13.43;;;7.38;;
12635;SDS011;6383;50.830;7.210;2023-03-19T01:14:58;9.77;;;6.15;;
12635;SDS011;6383;50.830;7.210;2023-03-19T01:17:27;8.32;;;6.53;;
12635;SDS011;6383;50.830;7.210;2023-03-19T01:19:54;15.82;;;7.35;;
12635;SDS011;6383;50.830;7.210;2023-03-19T01:22:22;13.32;;;6.88;;
12635;SDS011;6383;50.830;7.210;2023-03-19T01:24:51;12.73;;;5.88;;
12635;SDS011;6383;50.830;7.210;2023-03-19T01:27:19;10.57;;;5.97;;
12635;SDS011;6383;50.830;7.210;2023-03-19T01:29:48;7.70;;;6.10;;
12635;SDS011;6383;50.830;7.210;2023-03-19T01:32:19;8.38;;;5.10;;
12635;SDS011;6383;50.830;7.210;2023-03-19T01:34:48;8.98;;;4.88;;
12635;SDS011;6383;50.830;7.210;2023-03-19T01:37:17;10.15;;;6.38;;
12635;SDS011;6383;50.830;7.210;2023-03-19T01:39:46;13.50;;;5.80;;
12635;SDS011;6383;50.830;7.210;2023-03-19T01:42:13;10.60;;;6.25;;
12635;SDS011;6383;50.830;7.210;2023-03-19T01:44:41;11.10;;;5.70;;
12635;SDS011;6383;50.830;7.210;2023-03-19T01:47:13;13.45;;;6.25;;
12635;SDS011;6383;50.830;7.210;2023-03-19T01:49:49;10.88;;;6.35;;
12635;SDS011;6383;50.830;7.210;2023-03-19T01:52:22;8.07;;;5.70;;
12635;SDS011;6383;50.830;7.210;2023-03-19T01:54:52;11.63;;;6.38;;
12635;SDS011;6383;50.830;7.210;2023-03-19T01:57:23;12.45;;;6.57;;
12635;SDS011;6383;50.830;7.210;2023-03-19T01:59:52;10.32;;;5.63;;
12635;SDS011;6383;50.830;7.210;2023-03-19T02:02:24;10.23;;;5.90;;
12635;SDS011;6383;50.830;7.210;2023-03-19T02:04:59;12.30;;;5.60;;
12635;SDS011;6383;50.830;7.210;2023-03-19T02:07:29;8.52;;;3.92;;
12635;SDS011;6383;50.830;7.210;2023-03-19T02:10:01;7.97;;;5.30;;
12635;SDS011;6383;50.830;7.210;2023-03-19T02:12:32;12.52;;;5.45;;
12635;SDS011;6383;50.830;7.210;2023-03-19T02:15:00;9.43;;;4.50;;
12635;SDS011;6383;50.830;7.210;2023-03-19T02:17:28;7.05;;;4.93;;
12635;SDS011;6383;50.830;7.210;2023-03-19T02:20:00;13.43;;;4.82;;
12635;SDS011;6383;50.830;7.210;2023-03-19T02:22:35;10.00;;;5.50;;
12635;SDS011;6383;50.830;7.210;2023-03-19T02:25:08;7.10;;;5.13;;
12635;SDS011;6383;50.830;7.210;2023-03-19T02:27:41;12.25;;;5.32;;
12635;SDS011;6383;50.830;7.210;2023-03-19T02:30:17;8.30;;;5.03;;
12635;SDS011;6383;50.830;7.210;2023-03-19T02:32:48;8.43;;;5.07;;
12635;SDS011;6383;50.830;7.210;2023-03-19T02:35:16;9.00;;;5.20;;
12635;SDS011;6383;50.830;7.210;2023-03-19T02:37:45;8.48;;;5.72;;
12635;SDS011;6383;50.830;7.210;2023-03-19T02:40:13;6.55;;;4.38;;
12635;SDS011;6383;50.830;7.210;2023-03-19T02:42:48;8.43;;;4.30;;
12635;SDS011;6383;50.830;7.210;2023-03-19T02:45:16;9.98;;;4.75;;
12635;SDS011;6383;50.830;7.210;2023-03-19T02:47:45;9.30;;;4.85;;
12635;SDS011;6383;50.830;7.210;2023-03-19T02:50:13;8.73;;;4.82;;
12635;SDS011;6383;50.830;7.210;2023-03-19T02:52:43;7.90;;;4.68;;
12635;SDS011;6383;50.830;7.210;2023-03-19T02:55:11;9.88;;;4.85;;
12635;SDS011;6383;50.830;7.210;2023-03-19T02:57:39;8.77;;;4.88;;
12635;SDS011;6383;50.830;7.210;2023-03-19T03:00:11;9.95;;;5.70;;
12635;SDS011;6383;50.830;7.210;2023-03-19T03:02:41;6.90;;;4.60;;
12635;SDS011;6383;50.830;7.210;2023-03-19T03:05:09;8.90;;;4.95;;
12635;SDS011;6383;50.830;7.210;2023-03-19T03:07:38;11.90;;;4.50;;
12635;SDS011;6383;50.830;7.210;2023-03-19T03:10:10;9.95;;;4.35;;
12635;SDS011;6383;50.830;7.210;2023-03-19T03:12:37;10.73;;;4.65;;
12635;SDS011;6383;50.830;7.210;2023-03-19T03:15:07;7.25;;;4.63;;
12635;SDS011;6383;50.830;7.210;2023-03-19T03:17:37;8.95;;;4.45;;
12635;SDS011;6383;50.830;7.210;2023-03-19T03:20:06;8.20;;;4.38;;
12635;SDS011;6383;50.830;7.210;2023-03-19T03:22:36;12.00;;;5.20;;
12635;SDS011;6383;50.830;7.210;2023-03-19T03:25:06;10.35;;;5.40;;
12635;SDS011;6383;50.830;7.210;2023-03-19T03:27:36;8.20;;;4.72;;
12635;SDS011;6383;50.830;7.210;2023-03-19T03:30:05;10.50;;;5.65;;
12635;SDS011;6383;50.830;7.210;2023-03-19T03:32:37;6.45;;;3.63;;
12635;SDS011;6383;50.830;7.210;2023-03-19T03:35:05;6.85;;;4.32;;
12635;SDS011;6383;50.830;7.210;2023-03-19T03:37:36;5.55;;;4.05;;
12635;SDS011;6383;50.830;7.210;2023-03-19T03:40:06;9.52;;;4.57;;
12635;SDS011;6383;50.830;7.210;2023-03-19T03:42:36;9.90;;;4.35;;
12635;SDS011;6383;50.830;7.210;2023-03-19T03:45:04;6.15;;;3.78;;
12635;SDS011;6383;50.830;7.210;2023-03-19T03:47:34;9.70;;;4.20;;
12635;SDS011;6383;50.830;7.210;2023-03-19T03:50:04;6.40;;;4.00;;
12635;SDS011;6383;50.830;7.210;2023-03-19T03:52:33;11.48;;;4.35;;
12635;SDS011;6383;50.830;7.210;2023-03-19T03:55:03;6.25;;;3.92;;
12635;SDS011;6383;50.830;7.210;2023-03-19T03:57:31;10.52;;;4.50;;
12635;SDS011;6383;50.830;7.210;2023-03-19T03:59:59;11.80;;;5.03;;
12635;SDS011;6383;50.830;7.210;2023-03-19T04:02:28;5.97;;;4.32;;
12635;SDS011;6383;50.830;7.210;2023-03-19T04:04:57;8.02;;;4.45;;
12635;SDS011;6383;50.830;7.210;2023-03-19T04:07:26;13.80;;;4.50;;
12635;SDS011;6383;50.830;7.210;2023-03-19T04:09:55;9.82;;;5.15;;
12635;SDS011;6383;50.830;7.210;2023-03-19T04:12:24;12.30;;;4.97;;
12635;SDS011;6383;50.830;7.210;2023-03-19T04:14:52;6.82;;;4.05;;
12635;SDS011;6383;50.830;7.210;2023-03-19T04:17:19;9.23;;;5.25;;
12635;SDS011;6383;50.830;7.210;2023-03-19T04:19:48;6.03;;;4.35;;
12635;SDS011;6383;50.830;7.210;2023-03-19T04:22:17;7.88;;;4.05;;
12635;SDS011;6383;50.830;7.210;2023-03-19T04:24:46;8.63;;;4.47;;
12635;SDS011;6383;50.830;7.210;2023-03-19T04:27:14;9.27;;;4.80;;
12635;SDS011;6383;50.830;7.210;2023-03-19T04:29:43;8.55;;;4.40;;
12635;SDS011;6383;50.830;7.210;2023-03-19T04:32:13;8.43;;;3.92;;
12635;SDS011;6383;50.830;7.210;2023-03-19T04:34:41;7.60;;;3.70;;
12635;SDS011;6383;50.830;7.210;2023-03-19T04:37:09;7.97;;;4.75;;
12635;SDS011;6383;50.830;7.210;2023-03-19T04:39:38;11.60;;;4.75;;
12635;SDS011;6383;50.830;7.210;2023-03-19T04:42:08;6.70;;;4.57;;
12635;SDS011;6383;50.830;7.210;2023-03-19T04:44:37;6.85;;;5.35;;
12635;SDS011;6383;50.830;7.210;2023-03-19T04:47:06;10.38;;;4.53;;
12635;SDS011;6383;50.830;7.210;2023-03-19T04:49:36;8.23;;;4.00;;
12635;SDS011;6383;50.830;7.210;2023-03-19T04:52:04;9.13;;;3.80;;
12635;SDS011;6383;50.830;7.210;2023-03-19T04:54:33;12.18;;;3.67;;
12635;SDS011;6383;50.830;7.210;2023-03-19T04:57:01;3.58;;;2.67;;
12635;SDS011;6383;50.830;7.210;2023-03-19T04:59:30;4.35;;;2.85;;
12635;SDS011;6383;50.830;7.210;2023-03-19T05:01:59;6.28;;;3.58;;
12635;SDS011;6383;50.830;7.210;2023-03-19T05:04:26;7.47;;;3.33;;
12635;SDS011;6383;50.830;7.210;2023-03-19T05:06:53;14.60;;;2.63;;
12635;SDS011;6383;50.830;7.210;2023-03-19T05:09:23;5.65;;;2.40;;
12635;SDS011;6383;50.830;7.210;2023-03-19T05:11:52;8.15;;;2.50;;
12635;SDS011;6383;50.830;7.210;2023-03-19T05:14:21;16.05;;;2.58;;
12635;SDS011;6383;50.830;7.210;2023-03-19T05:16:51;2.47;;;2.28;;
12635;SDS011;6383;50.830;7.210;2023-03-19T05:19:20;3.78;;;1.98;;
12635;SDS011;6383;50.830;7.210;2023-03-19T05:21:49;7.82;;;2.80;;
12635;SDS011;6383;50.830;7.210;2023-03-19T05:24:17;3.67;;;2.17;;
12635;SDS011;6383;50.830;7.210;2023-03-19T05:26:44;2.58;;;2.15;;
12635;SDS011;6383;50.830;7.210;2023-03-19T05:29:13;5.28;;;2.90;;
12635;SDS011;6383;50.830;7.210;2023-03-19T05:31:43;4.43;;;1.95;;
12635;SDS011;6383;50.830;7.210;2023-03-19T05:34:13;2.78;;;1.92;;
12635;SDS011;6383;50.830;7.210;2023-03-19T05:36:42;3.35;;;2.10;;
12635;SDS011;6383;50.830;7.210;2023-03-19T05:39:11;9.00;;;2.65;;
12635;SDS011;6383;50.830;7.210;2023-03-19T05:41:39;14.40;;;3.83;;
12635;SDS011;6383;50.830;7.210;2023-03-19T05:44:07;4.97;;;2.40;;
12635;SDS011;6383;50.830;7.210;2023-03-19T05:46:35;10.80;;;5.20;;
12635;SDS011;6383;50.830;7.210;2023-03-19T05:49:04;12.93;;;6.47;;
12635;SDS011;6383;50.830;7.210;2023-03-19T05:51:33;15.68;;;8.63;;
12635;SDS011;6383;50.830;7.210;2023-03-19T05:54:00;18.27;;;10.60;;
12635;SDS011;6383;50.830;7.210;2023-03-19T05:56:29;18.40;;;7.80;;
12635;SDS011;6383;50.830;7.210;2023-03-19T05:58:58;14.23;;;8.43;;
12635;SDS011;6383;50.830;7.210;2023-03-19T06:01:26;14.25;;;7.88;;
12635;SDS011;6383;50.830;7.210;2023-03-19T06:03:55;13.95;;;6.78;;
12635;SDS011;6383;50.830;7.210;2023-03-19T06:06:23;32.30;;;22.13;;
12635;SDS011;6383;50.830;7.210;2023-03-19T06:08:53;26.55;;;16.05;;
12635;SDS011;6383;50.830;7.210;2023-03-19T06:11:22;21.58;;;14.93;;
12635;SDS011;6383;50.830;7.210;2023-03-19T06:13:49;17.08;;;10.43;;
12635;SDS011;6383;50.830;7.210;2023-03-19T06:16:18;12.98;;;9.13;;
12635;SDS011;6383;50.830;7.210;2023-03-19T06:18:47;17.95;;;10.45;;
12635;SDS011;6383;50.830;7.210;2023-03-19T06:21:16;17.60;;;10.07;;
12635;SDS011;6383;50.830;7.210;2023-03-19T06:23:45;18.20;;;10.32;;
12635;SDS011;6383;50.830;7.210;2023-03-19T06:26:15;11.13;;;8.35;;
12635;SDS011;6383;50.830;7.210;2023-03-19T06:28:44;9.70;;;7.82;;
12635;SDS011;6383;50.830;7.210;2023-03-19T06:31:11;13.52;;;8.60;;
12635;SDS011;6383;50.830;7.210;2023-03-19T06:33:41;12.65;;;7.35;;
12635;SDS011;6383;50.830;7.210;2023-03-19T06:36:09;13.77;;;7.25;;
12635;SDS011;6383;50.830;7.210;2023-03-19T06:38:38;13.20;;;6.65;;
12635;SDS011;6383;50.830;7.210;2023-03-19T06:41:05;11.43;;;7.60;;
12635;SDS011;6383;50.830;7.210;2023-03-19T06:43:35;10.30;;;6.70;;
12635;SDS011;6383;50.830;7.210;2023-03-19T06:46:07;15.05;;;7.05;;
12635;SDS011;6383;50.830;7.210;2023-03-19T06:48:36;6.80;;;5.50;;
12635;SDS011;6383;50.830;7.210;2023-03-19T06:51:04;8.02;;;4.45;;
12635;SDS011;6383;50.830;7.210;2023-03-19T06:53:32;6.53;;;4.50;;
12635;SDS011;6383;50.830;7.210;2023-03-19T06:56:00;8.02;;;4.75;;
12635;SDS011;6383;50.830;7.210;2023-03-19T06:58:28;9.73;;;4.80;;
12635;SDS011;6383;50.830;7.210;2023-03-19T07:00:57;6.88;;;4.13;;
12635;SDS011;6383;50.830;7.210;2023-03-19T07:03:26;5.13;;;4.50;;
12635;SDS011;6383;50.830;7.210;2023-03-19T07:05:54;7.45;;;4.18;;
12635;SDS011;6383;50.830;7.210;2023-03-19T07:08:21;10.02;;;4.22;;
12635;SDS011;6383;50.830;7.210;2023-03-19T07:10:50;7.53;;;4.68;;
12635;SDS011;6383;50.830;7.210;2023-03-19T07:13:19;6.63;;;4.78;;
12635;SDS011;6383;50.830;7.210;2023-03-19T07:15:47;8.27;;;4.70;;
12635;SDS011;6383;50.830;7.210;2023-03-19T07:18:18;6.55;;;4.22;;
12635;SDS011;6383;50.830;7.210;2023-03-19T07:20:47;7.22;;;4.10;;
12635;SDS011;6383;50.830;7.210;2023-03-19T07:23:16;5.78;;;3.30;;
12635;SDS011;6383;50.830;7.210;2023-03-19T07:25:45;4.10;;;2.65;;
12635;SDS011;6383;50.830;7.210;2023-03-19T07:28:14;3.90;;;2.60;;
12635;SDS011;6383;50.830;7.210;2023-03-19T07:30:43;6.32;;;2.40;;
12635;SDS011;6383;50.830;7.210;2023-03-19T07:33:10;2.08;;;1.98;;
12635;SDS011;6383;50.830;7.210;2023-03-19T07:35:41;4.35;;;2.25;;
12635;SDS011;6383;50.830;7.210;2023-03-19T07:38:10;4.10;;;1.92;;
12635;SDS011;6383;50.830;7.210;2023-03-19T07:40:39;4.03;;;1.73;;
12635;SDS011;6383;50.830;7.210;2023-03-19T07:43:07;4.97;;;1.80;;
12635;SDS011;6383;50.830;7.210;2023-03-19T07:45:35;4.15;;;2.13;;
12635;SDS011;6383;50.830;7.210;2023-03-19T07:48:04;2.03;;;1.77;;
12635;SDS011;6383;50.830;7.210;2023-03-19T07:50:32;2.53;;;1.55;;
12635;SDS011;6383;50.830;7.210;2023-03-19T07:53:02;5.65;;;1.90;;
12635;SDS011;6383;50.830;7.210;2023-03-19T07:55:31;4.10;;;1.75;;
12635;SDS011;6383;50.830;7.210;2023-03-19T07:58:00;7.85;;;2.53;;
12635;SDS011;6383;50.830;7.210;2023-03-19T08:00:29;2.95;;;1.98;;
12635;SDS011;6383;50.830;7.210;2023-03-19T08:02:58;6.25;;;1.77;;
12635;SDS011;6383;50.830;7.210;2023-03-19T08:05:26;3.47;;;1.75;;
12635;SDS011;6383;50.830;7.210;2023-03-19T08:07:53;4.72;;;1.88;;
12635;SDS011;6383;50.830;7.210;2023-03-19T08:10:25;2.72;;;1.58;;
12635;SDS011;6383;50.830;7.210;2023-03-19T08:12:52;3.47;;;2.00;;
12635;SDS011;6383;50.830;7.210;2023-03-19T08:15:21;3.58;;;1.75;;
12635;SDS011;6383;50.830;7.210;2023-03-19T08:17:56;1.98;;;1.40;;
12635;SDS011;6383;50.830;7.210;2023-03-19T08:20:26;2.15;;;1.40;;
12635;SDS011;6383;50.830;7.210;2023-03-19T08:22:54;4.40;;;1.70;;
12635;SDS011;6383;50.830;7.210;2023-03-19T08:25:25;3.85;;;1.92;;
12635;SDS011;6383;50.830;7.210;2023-03-19T08:27:58;4.82;;;1.80;;
12635;SDS011;6383;50.830;7.210;2023-03-19T08:30:26;3.50;;;2.20;;
12635;SDS011;6383;50.830;7.210;2023-03-19T08:32:55;4.78;;;2.08;;
12635;SDS011;6383;50.830;7.210;2023-03-19T08:35:24;5.10;;;2.08;;
12635;SDS011;6383;50.830;7.210;2023-03-19T08:37:53;3.97;;;1.98;;
12635;SDS011;6383;50.830;7.210;2023-03-19T08:40:21;5.10;;;2.05;;
12635;SDS011;6383;50.830;7.210;2023-03-19T08:42:50;3.38;;;2.03;;
12635;SDS011;6383;50.830;7.210;2023-03-19T08:45:18;4.20;;;2.28;;
12635;SDS011;6383;50.830;7.210;2023-03-19T08:47:47;4.68;;;2.15;;
12635;SDS011;6383;50.830;7.210;2023-03-19T08:50:17;4.15;;;1.80;;
12635;SDS011;6383;50.830;7.210;2023-03-19T08:52:45;8.23;;;2.50;;
12635;SDS011;6383;50.830;7.210;2023-03-19T08:55:14;6.97;;;3.70;;
12635;SDS011;6383;50.830;7.210;2023-03-19T08:57:44;4.68;;;2.95;;
12635;SDS011;6383;50.830;7.210;2023-03-19T09:00:13;4.20;;;1.98;;
12635;SDS011;6383;50.830;7.210;2023-03-19T09:02:42;4.38;;;2.42;;
12635;SDS011;6383;50.830;7.210;2023-03-19T09:05:11;6.95;;;3.25;;
12635;SDS011;6383;50.830;7.210;2023-03-19T09:07:39;6.22;;;2.40;;
12635;SDS011;6383;50.830;7.210;2023-03-19T09:10:08;4.05;;;2.60;;
12635;SDS011;6383;50.830;7.210;2023-03-19T09:12:38;4.22;;;2.20;;
12635;SDS011;6383;50.830;7.210;2023-03-19T09:15:06;2.53;;;1.88;;
12635;SDS011;6383;50.830;7.210;2023-03-19T09:17:36;2.22;;;1.50;;
12635;SDS011;6383;50.830;7.210;2023-03-19T09:20:05;2.00;;;1.58;;
12635;SDS011;6383;50.830;7.210;2023-03-19T09:22:35;1.50;;;1.33;;
12635;SDS011;6383;50.830;7.210;2023-03-19T09:25:02;3.05;;;1.95;;
12635;SDS011;6383;50.830;7.210;2023-03-19T09:27:32;1.23;;;1.13;;
12635;SDS011;6383;50.830;7.210;2023-03-19T09:29:59;6.43;;;1.58;;
12635;SDS011;6383;50.830;7.210;2023-03-19T09:32:28;2.05;;;1.50;;
12635;SDS011;6383;50.830;7.210;2023-03-19T09:34:59;2.28;;;1.20;;
12635;SDS011;6383;50.830;7.210;2023-03-19T09:37:27;3.92;;;1.80;;
12635;SDS011;6383;50.830;7.210;2023-03-19T09:39:55;2.00;;;1.80;;
12635;SDS011;6383;50.830;7.210;2023-03-19T09:42:30;8.57;;;1.52;;
12635;SDS011;6383;50.830;7.210;2023-03-19T09:45:11;2.60;;;2.00;;
12635;SDS011;6383;50.830;7.210;2023-03-19T09:47:42;2.88;;;2.00;;
12635;SDS011;6383;50.830;7.210;2023-03-19T09:50:14;4.10;;;2.38;;
12635;SDS011;6383;50.830;7.210;2023-03-19T09:52:45;2.38;;;2.03;;
12635;SDS011;6383;50.830;7.210;2023-03-19T09:55:19;3.08;;;2.10;;
12635;SDS011;6383;50.830;7.210;2023-03-19T09:57:57;2.78;;;1.73;;
12635;SDS011;6383;50.830;7.210;2023-03-19T10:00:27;2.22;;;1.88;;
12635;SDS011;6383;50.830;7.210;2023-03-19T10:03:00;3.53;;;1.45;;
12635;SDS011;6383;50.830;7.210;2023-03-19T10:05:37;2.20;;;1.63;;
12635;SDS011;6383;50.830;7.210;2023-03-19T10:08:23;3.35;;;1.85;;
12635;SDS011;6383;50.830;7.210;2023-03-19T10:11:13;2.72;;;2.05;;
12635;SDS011;6383;50.830;7.210;2023-03-19T10:13:58;2.00;;;1.80;;
12635;SDS011;6383;50.830;7.210;2023-03-19T10:16:38;3.50;;;2.10;;
12635;SDS011;6383;50.830;7.210;2023-03-19T10:19:10;3.03;;;1.80;;
12635;SDS011;6383;50.830;7.210;2023-03-19T10:21:46;5.47;;;2.47;;
12635;SDS011;6383;50.830;7.210;2023-03-19T10:24:20;3.58;;;2.28;;
12635;SDS011;6383;50.830;7.210;2023-03-19T10:26:54;3.57;;;2.67;;
12635;SDS011;6383;50.830;7.210;2023-03-19T10:29:26;4.60;;;2.25;;
12635;SDS011;6383;50.830;7.210;2023-03-19T10:31:57;4.55;;;2.17;;
12635;SDS011;6383;50.830;7.210;2023-03-19T10:34:33;3.55;;;2.40;;
12635;SDS011;6383;50.830;7.210;2023-03-19T10:37:05;5.72;;;3.08;;
12635;SDS011;6383;50.830;7.210;2023-03-19T10:39:42;2.65;;;2.38;;
12635;SDS011;6383;50.830;7.210;2023-03-19T10:45:13;4.70;;;2.45;;
12635;SDS011;6383;50.830;7.210;2023-03-19T10:47:48;5.35;;;2.97;;
12635;SDS011;6383;50.830;7.210;2023-03-19T10:50:19;3.92;;;2.42;;
12635;SDS011;6383;50.830;7.210;2023-03-19T10:52:55;5.25;;;2.38;;
12635;SDS011;6383;50.830;7.210;2023-03-19T10:55:31;3.92;;;2.25;;
12635;SDS011;6383;50.830;7.210;2023-03-19T10:58:02;2.85;;;2.30;;
12635;SDS011;6383;50.830;7.210;2023-03-19T11:00:32;3.88;;;2.22;;
12635;SDS011;6383;50.830;7.210;2023-03-19T11:03:02;7.25;;;2.20;;
12635;SDS011;6383;50.830;7.210;2023-03-19T11:05:31;3.42;;;2.10;;
12635;SDS011;6383;50.830;7.210;2023-03-19T11:08:03;2.00;;;1.58;;
12635;SDS011;6383;50.830;7.210;2023-03-19T11:10:33;3.30;;;2.00;;
12635;SDS011;6383;50.830;7.210;2023-03-19T11:13:03;5.05;;;1.73;;
12635;SDS011;6383;50.830;7.210;2023-03-19T11:15:34;2.95;;;1.60;;
12635;SDS011;6383;50.830;7.210;2023-03-19T11:18:06;1.73;;;1.40;;
12635;SDS011;6383;50.830;7.210;2023-03-19T11:20:44;1.92;;;1.42;;
12635;SDS011;6383;50.830;7.210;2023-03-19T11:23:19;2.60;;;1.42;;
12635;SDS011;6383;50.830;7.210;2023-03-19T11:25:46;2.28;;;1.50;;
12635;SDS011;6383;50.830;7.210;2023-03-19T11:28:19;4.10;;;1.63;;
12635;SDS011;6383;50.830;7.210;2023-03-19T11:30:58;2.40;;;1.13;;
12635;SDS011;6383;50.830;7.210;2023-03-19T11:33:38;1.48;;;1.38;;
12635;SDS011;6383;50.830;7.210;2023-03-19T11:36:18;4.85;;;1.70;;
12635;SDS011;6383;50.830;7.210;2023-03-19T11:38:59;4.45;;;1.88;;
12635;SDS011;6383;50.830;7.210;2023-03-19T11:41:40;3.35;;;3.05;;
12635;SDS011;6383;50.830;7.210;2023-03-19T11:44:17;1.65;;;1.55;;
12635;SDS011;6383;50.830;7.210;2023-03-19T11:46:53;2.65;;;2.45;;
12635;SDS011;6383;50.830;7.210;2023-03-19T11:49:36;1.63;;;1.52;;
12635;SDS011;6383;50.830;7.210;2023-03-19T11:52:15;1.45;;;1.35;;
12635;SDS011;6383;50.830;7.210;2023-03-19T11:54:56;1.95;;;1.80;;
12635;SDS011;6383;50.830;7.210;2023-03-19T11:57:36;3.78;;;2.45;;
12635;SDS011;6383;50.830;7.210;2023-03-19T12:00:21;6.40;;;1.77;;
12635;SDS011;6383;50.830;7.210;2023-03-19T12:03:06;5.88;;;2.38;;
12635;SDS011;6383;50.830;7.210;2023-03-19T12:05:59;2.90;;;2.35;;
12635;SDS011;6383;50.830;7.210;2023-03-19T12:08:37;4.57;;;2.25;;
12635;SDS011;6383;50.830;7.210;2023-03-19T12:11:15;5.68;;;5.13;;
12635;SDS011;6383;50.830;7.210;2023-03-19T12:13:55;2.30;;;2.00;;
12635;SDS011;6383;50.830;7.210;2023-03-19T12:19:24;2.55;;;1.85;;
12635;SDS011;6383;50.830;7.210;2023-03-19T12:22:08;2.45;;;1.33;;
12635;SDS011;6383;50.830;7.210;2023-03-19T12:24:47;3.08;;;1.52;;
12635;SDS011;6383;50.830;7.210;2023-03-19T12:27:33;2.58;;;1.45;;
12635;SDS011;6383;50.830;7.210;2023-03-19T12:30:11;3.03;;;1.77;;
12635;SDS011;6383;50.830;7.210;2023-03-19T12:32:50;2.55;;;1.40;;
12635;SDS011;6383;50.830;7.210;2023-03-19T12:35:30;1.87;;;1.30;;
12635;SDS011;6383;50.830;7.210;2023-03-19T12:38:02;2.58;;;1.38;;
12635;SDS011;6383;50.830;7.210;2023-03-19T12:40:37;2.85;;;1.00;;
12635;SDS011;6383;50.830;7.210;2023-03-19T12:43:16;2.50;;;1.23;;
12635;SDS011;6383;50.830;7.210;2023-03-19T12:45:46;2.92;;;1.15;;
12635;SDS011;6383;50.830;7.210;2023-03-19T12:48:21;1.35;;;1.25;;
12635;SDS011;6383;50.830;7.210;2023-03-19T12:50:53;2.72;;;1.83;;
12635;SDS011;6383;50.830;7.210;2023-03-19T12:53:27;1.92;;;1.50;;
12635;SDS011;6383;50.830;7.210;2023-03-19T12:56:01;2.78;;;1.80;;
12635;SDS011;6383;50.830;7.210;2023-03-19T12:58:38;1.88;;;1.65;;
12635;SDS011;6383;50.830;7.210;2023-03-19T13:01:17;2.33;;;1.85;;
12635;SDS011;6383;50.830;7.210;2023-03-19T13:03:53;2.25;;;1.35;;
12635;SDS011;6383;50.830;7.210;2023-03-19T13:08:57;1.95;;;1.38;;
12635;SDS011;6383;50.830;7.210;2023-03-19T13:11:37;2.92;;;1.30;;
12635;SDS011;6383;50.830;7.210;2023-03-19T13:14:15;2.45;;;1.20;;
12635;SDS011;6383;50.830;7.210;2023-03-19T13:16:49;2.53;;;1.60;;
12635;SDS011;6383;50.830;7.210;2023-03-19T13:19:25;2.00;;;1.80;;
12635;SDS011;6383;50.830;7.210;2023-03-19T13:22:02;2.10;;;1.13;;
12635;SDS011;6383;50.830;7.210;2023-03-19T13:27:06;6.93;;;1.60;;
12635;SDS011;6383;50.830;7.210;2023-03-19T13:29:52;3.97;;;1.67;;
12635;SDS011;6383;50.830;7.210;2023-03-19T13:32:35;2.97;;;1.40;;
12635;SDS011;6383;50.830;7.210;2023-03-19T13:35:16;2.72;;;2.50;;
12635;SDS011;6383;50.830;7.210;2023-03-19T13:37:54;1.08;;;0.98;;
12635;SDS011;6383;50.830;7.210;2023-03-19T13:40:36;2.03;;;1.23;;
12635;SDS011;6383;50.830;7.210;2023-03-19T13:49:21;2.25;;;1.60;;
12635;SDS011;6383;50.830;7.210;2023-03-19T13:51:54;1.88;;;1.30;;
12635;SDS011;6383;50.830;7.210;2023-03-19T13:54:36;1.50;;;1.40;;
12635;SDS011;6383;50.830;7.210;2023-03-19T13:57:16;3.53;;;1.15;;
12635;SDS011;6383;50.830;7.210;2023-03-19T13:59:47;1.67;;;1.33;;
12635;SDS011;6383;50.830;7.210;2023-03-19T14:05:17;1.30;;;1.17;;
12635;SDS011;6383;50.830;7.210;2023-03-19T14:07:50;2.22;;;1.27;;
12635;SDS011;6383;50.830;7.210;2023-03-19T14:10:23;3.40;;;1.30;;
12635;SDS011;6383;50.830;7.210;2023-03-19T14:12:59;1.45;;;1.27;;
12635;SDS011;6383;50.830;7.210;2023-03-19T14:15:32;1.25;;;1.15;;
12635;SDS011;6383;50.830;7.210;2023-03-19T14:18:03;3.80;;;1.17;;
12635;SDS011;6383;50.830;7.210;2023-03-19T14:20:33;2.85;;;1.42;;
12635;SDS011;6383;50.830;7.210;2023-03-19T14:23:17;4.28;;;2.10;;
12635;SDS011;6383;50.830;7.210;2023-03-19T14:25:51;3.15;;;2.05;;
12635;SDS011;6383;50.830;7.210;2023-03-19T14:28:33;3.30;;;1.48;;
12635;SDS011;6383;50.830;7.210;2023-03-19T14:31:15;1.83;;;1.10;;
12635;SDS011;6383;50.830;7.210;2023-03-19T14:33:51;2.25;;;1.52;;
12635;SDS011;6383;50.830;7.210;2023-03-19T14:36:22;2.72;;;1.70;;
12635;SDS011;6383;50.830;7.210;2023-03-19T14:38:53;1.15;;;1.05;;
12635;SDS011;6383;50.830;7.210;2023-03-19T14:41:25;2.17;;;1.35;;
12635;SDS011;6383;50.830;7.210;2023-03-19T14:44:07;3.53;;;1.50;;
12635;SDS011;6383;50.830;7.210;2023-03-19T14:47:02;1.58;;;1.20;;
12635;SDS011;6383;50.830;7.210;2023-03-19T14:49:47;5.40;;;1.83;;
12635;SDS011;6383;50.830;7.210;2023-03-19T14:52:26;2.85;;;1.90;;
12635;SDS011;6383;50.830;7.210;2023-03-19T14:54:56;3.13;;;1.33;;
12635;SDS011;6383;50.830;7.210;2023-03-19T14:57:28;2.25;;;1.40;;
12635;SDS011;6383;50.830;7.210;2023-03-19T14:59:58;2.58;;;1.10;;
12635;SDS011;6383;50.830;7.210;2023-03-19T15:02:32;2.72;;;0.85;;
12635;SDS011;6383;50.830;7.210;2023-03-19T15:05:06;1.40;;;0.93;;
12635;SDS011;6383;50.830;7.210;2023-03-19T15:07:40;1.48;;;0.70;;
12635;SDS011;6383;50.830;7.210;2023-03-19T15:10:13;3.83;;;0.80;;
12635;SDS011;6383;50.830;7.210;2023-03-19T15:12:52;0.60;;;0.60;;
12635;SDS011;6383;50.830;7.210;2023-03-19T15:15:31;0.68;;;0.68;;
12635;SDS011;6383;50.830;7.210;2023-03-19T15:18:06;0.60;;;0.60;;
12635;SDS011;6383;50.830;7.210;2023-03-19T15:20:41;1.92;;;0.85;;
12635;SDS011;6383;50.830;7.210;2023-03-19T15:23:11;1.02;;;0.50;;
12635;SDS011;6383;50.830;7.210;2023-03-19T15:25:45;1.38;;;0.50;;
12635;SDS011;6383;50.830;7.210;2023-03-19T15:28:13;2.05;;;0.50;;
12635;SDS011;6383;50.830;7.210;2023-03-19T15:30:43;0.55;;;0.52;;
12635;SDS011;6383;50.830;7.210;2023-03-19T15:33:16;3.97;;;0.70;;
12635;SDS011;6383;50.830;7.210;2023-03-19T15:35:50;0.63;;;0.50;;
12635;SDS011;6383;50.830;7.210;2023-03-19T15:38:24;0.45;;;0.30;;
12635;SDS011;6383;50.830;7.210;2023-03-19T15:40:57;0.60;;;0.40;;
12635;SDS011;6383;50.830;7.210;2023-03-19T15:43:27;1.33;;;0.50;;